Terminal Aerodrome Forecast
Issued by NWS Glasgow, MT

Home | Current Version | Previous Version | Text Only | Print | Product List | Glossary On
Versions: 1 2 3 4 5 6 7 8 9 10 11 12 13 14 15 16 17 18 19 20 21
924
FTUS45 KGGW 241137
TAFGGW
TAF
KGGW 241137Z 2412/2512 31005KT P6SM VCSH BKN015
     FM241700 31006KT P6SM BKN020
     FM250300 31005KT P6SM OVC025
     FM251100 30004KT P6SM BKN015=

USA.gov is the U.S. government's official web portal to all federal, state and local government web resources and services.